Prince, West Virginia
Current Conditions -  °F | °C
As of 7:51 AM on Friday 31 Oct 2014 (Local Time) from KBKW Reporting Station
Broken Clouds Broken Clouds  
Wind Chill: 32°   Ceiling: 3300
Heat Index: 32°   Visibility: 9mi
Dew Point: 28°   Wind: 0mph
Humidity: 85%   Direction: NA
Pressure: 29.94"   Gusts: NA
Location:  37.86°N, 81.05°W
Report Text: KBKW 311151Z AUTO 00000KT 9SM BKN033 00/M02 A2994 RMK AO2 SLP158 T00001022 10022 21006 56007 TSNO
Loading
Personal Weather Stations






























Interactive Weather Map
Tropical Storm Tracking
New forecast layout! Learn more

10-Day Weather Forecast

Advertisements
Track Severe Weather on mobile